sensor_id;sensor_type;location;lat;lon;timestamp;pressure;altitude;pressure_sealevel;temperature;humidity
23303;BME280;11820;48.738;9.092;2022-10-16T00:02:16;96178.81;;;16.22;100.00
23303;BME280;11820;48.738;9.092;2022-10-16T00:04:42;96169.19;;;16.23;100.00
23303;BME280;11820;48.738;9.092;2022-10-16T00:07:07;96175.66;;;16.20;100.00
23303;BME280;11820;48.738;9.092;2022-10-16T00:09:32;96188.91;;;16.19;100.00
23303;BME280;11820;48.738;9.092;2022-10-16T00:11:57;96187.34;;;16.18;100.00
23303;BME280;11820;48.738;9.092;2022-10-16T00:14:23;96179.28;;;16.19;100.00
23303;BME280;11820;48.738;9.092;2022-10-16T00:16:48;96176.81;;;16.13;100.00
23303;BME280;11820;48.738;9.092;2022-10-16T00:19:13;96172.59;;;16.12;100.00
23303;BME280;11820;48.738;9.092;2022-10-16T00:21:39;96187.13;;;16.08;100.00
23303;BME280;11820;48.738;9.092;2022-10-16T00:24:07;96186.00;;;16.04;100.00
23303;BME280;11820;48.738;9.092;2022-10-16T00:26:34;96179.31;;;16.08;100.00
23303;BME280;11820;48.738;9.092;2022-10-16T00:29:01;96174.09;;;16.08;100.00
23303;BME280;11820;48.738;9.092;2022-10-16T00:31:27;96182.38;;;16.05;100.00
23303;BME280;11820;48.738;9.092;2022-10-16T00:33:53;96188.38;;;16.05;100.00
23303;BME280;11820;48.738;9.092;2022-10-16T00:36:20;96184.63;;;16.01;100.00
23303;BME280;11820;48.738;9.092;2022-10-16T00:38:46;96176.03;;;16.01;100.00
23303;BME280;11820;48.738;9.092;2022-10-16T00:41:15;96187.59;;;16.05;100.00
23303;BME280;11820;48.738;9.092;2022-10-16T00:43:50;96183.16;;;16.05;100.00
23303;BME280;11820;48.738;9.092;2022-10-16T00:48:48;96179.88;;;15.98;100.00
23303;BME280;11820;48.738;9.092;2022-10-16T00:51:15;96175.47;;;15.99;100.00
23303;BME280;11820;48.738;9.092;2022-10-16T00:53:42;96179.88;;;15.98;100.00
23303;BME280;11820;48.738;9.092;2022-10-16T00:56:07;96179.31;;;15.96;100.00
23303;BME280;11820;48.738;9.092;2022-10-16T00:58:33;96189.28;;;15.99;100.00
23303;BME280;11820;48.738;9.092;2022-10-16T01:00:58;96195.31;;;16.00;100.00
23303;BME280;11820;48.738;9.092;2022-10-16T01:03:34;96198.13;;;15.98;100.00
23303;BME280;11820;48.738;9.092;2022-10-16T01:06:21;96197.13;;;15.99;100.00
23303;BME280;11820;48.738;9.092;2022-10-16T01:09:16;96200.41;;;16.06;100.00
23303;BME280;11820;48.738;9.092;2022-10-16T01:11:57;96202.78;;;16.08;100.00
23303;BME280;11820;48.738;9.092;2022-10-16T01:14:40;96206.53;;;16.12;100.00
23303;BME280;11820;48.738;9.092;2022-10-16T01:17:14;96199.63;;;16.06;100.00
23303;BME280;11820;48.738;9.092;2022-10-16T01:20:16;96204.47;;;16.02;100.00
23303;BME280;11820;48.738;9.092;2022-10-16T01:22:54;96199.81;;;16.04;100.00
23303;BME280;11820;48.738;9.092;2022-10-16T01:25:49;96189.75;;;15.96;100.00
23303;BME280;11820;48.738;9.092;2022-10-16T01:28:21;96194.63;;;15.93;100.00
23303;BME280;11820;48.738;9.092;2022-10-16T01:30:52;96187.03;;;15.91;100.00
23303;BME280;11820;48.738;9.092;2022-10-16T01:33:24;96196.09;;;15.89;100.00
23303;BME280;11820;48.738;9.092;2022-10-16T01:35:56;96191.44;;;15.91;100.00
23303;BME280;11820;48.738;9.092;2022-10-16T01:38:34;96192.25;;;15.91;100.00
23303;BME280;11820;48.738;9.092;2022-10-16T01:41:06;96186.59;;;15.94;100.00
23303;BME280;11820;48.738;9.092;2022-10-16T01:43:36;96194.19;;;15.96;100.00
23303;BME280;11820;48.738;9.092;2022-10-16T01:46:04;96188.50;;;15.99;100.00
23303;BME280;11820;48.738;9.092;2022-10-16T01:48:30;96177.72;;;15.95;100.00
23303;BME280;11820;48.738;9.092;2022-10-16T01:51:03;96180.69;;;15.99;100.00
23303;BME280;11820;48.738;9.092;2022-10-16T01:53:30;96176.81;;;16.01;100.00
23303;BME280;11820;48.738;9.092;2022-10-16T01:55:57;96181.25;;;16.01;100.00
23303;BME280;11820;48.738;9.092;2022-10-16T01:58:25;96183.63;;;16.02;100.00
23303;BME280;11820;48.738;9.092;2022-10-16T02:00:52;96174.19;;;16.01;100.00
23303;BME280;11820;48.738;9.092;2022-10-16T02:03:19;96175.56;;;16.04;100.00
23303;BME280;11820;48.738;9.092;2022-10-16T02:05:54;96165.13;;;16.04;100.00
23303;BME280;11820;48.738;9.092;2022-10-16T02:08:24;96166.72;;;16.05;100.00
23303;BME280;11820;48.738;9.092;2022-10-16T02:10:51;96168.31;;;16.06;100.00
23303;BME280;11820;48.738;9.092;2022-10-16T02:13:42;96175.13;;;16.07;100.00
23303;BME280;11820;48.738;9.092;2022-10-16T02:16:11;96176.69;;;16.08;100.00
23303;BME280;11820;48.738;9.092;2022-10-16T02:18:37;96183.72;;;16.07;100.00
23303;BME280;11820;48.738;9.092;2022-10-16T02:21:12;96187.13;;;16.08;100.00
23303;BME280;11820;48.738;9.092;2022-10-16T02:26:29;96190.41;;;16.15;100.00
23303;BME280;11820;48.738;9.092;2022-10-16T02:29:01;96182.69;;;16.20;100.00
23303;BME280;11820;48.738;9.092;2022-10-16T02:31:32;96176.22;;;16.22;100.00
23303;BME280;11820;48.738;9.092;2022-10-16T02:34:00;96174.41;;;16.23;100.00
23303;BME280;11820;48.738;9.092;2022-10-16T02:36:28;96171.81;;;16.23;100.00
23303;BME280;11820;48.738;9.092;2022-10-16T02:38:54;96176.44;;;16.21;100.00
23303;BME280;11820;48.738;9.092;2022-10-16T02:41:21;96178.06;;;16.22;100.00
23303;BME280;11820;48.738;9.092;2022-10-16T02:43:47;96174.06;;;16.19;100.00
23303;BME280;11820;48.738;9.092;2022-10-16T02:46:12;96180.53;;;16.17;100.00
23303;BME280;11820;48.738;9.092;2022-10-16T02:48:37;96182.91;;;16.18;100.00
23303;BME280;11820;48.738;9.092;2022-10-16T02:51:04;96187.91;;;16.20;100.00
23303;BME280;11820;48.738;9.092;2022-10-16T02:53:29;96187.34;;;16.18;100.00
23303;BME280;11820;48.738;9.092;2022-10-16T02:55:55;96192.25;;;16.14;100.00
23303;BME280;11820;48.738;9.092;2022-10-16T02:58:20;96191.88;;;16.11;100.00
23303;BME280;11820;48.738;9.092;2022-10-16T03:00:46;96197.44;;;16.14;100.00
23303;BME280;11820;48.738;9.092;2022-10-16T03:03:11;96195.16;;;16.18;100.00
23303;BME280;11820;48.738;9.092;2022-10-16T03:05:37;96193.25;;;16.13;100.00
23303;BME280;11820;48.738;9.092;2022-10-16T03:08:02;96196.09;;;16.12;100.00
23303;BME280;11820;48.738;9.092;2022-10-16T03:10:27;96200.75;;;16.10;100.00
23303;BME280;11820;48.738;9.092;2022-10-16T03:12:53;96198.69;;;16.12;100.00
23303;BME280;11820;48.738;9.092;2022-10-16T03:15:18;96193.47;;;16.12;100.00
23303;BME280;11820;48.738;9.092;2022-10-16T03:17:44;96182.81;;;16.13;100.00
23303;BME280;11820;48.738;9.092;2022-10-16T03:20:09;96198.13;;;16.10;100.00
23303;BME280;11820;48.738;9.092;2022-10-16T03:22:34;96195.88;;;16.13;100.00
23303;BME280;11820;48.738;9.092;2022-10-16T03:25:00;96199.50;;;16.12;100.00
23303;BME280;11820;48.738;9.092;2022-10-16T03:27:25;96197.09;;;16.11;100.00
23303;BME280;11820;48.738;9.092;2022-10-16T03:29:51;96201.31;;;16.12;100.00
23303;BME280;11820;48.738;9.092;2022-10-16T03:32:16;96199.72;;;16.11;100.00
23303;BME280;11820;48.738;9.092;2022-10-16T03:34:41;96206.75;;;16.10;100.00
23303;BME280;11820;48.738;9.092;2022-10-16T03:37:06;96204.38;;;16.09;100.00
23303;BME280;11820;48.738;9.092;2022-10-16T03:39:32;96194.75;;;16.09;100.00
23303;BME280;11820;48.738;9.092;2022-10-16T03:41:57;96206.75;;;16.10;100.00
23303;BME280;11820;48.738;9.092;2022-10-16T03:44:22;96188.50;;;16.10;100.00
23303;BME280;11820;48.738;9.092;2022-10-16T03:46:48;96198.38;;;16.08;100.00
23303;BME280;11820;48.738;9.092;2022-10-16T03:49:13;96206.41;;;16.07;100.00
23303;BME280;11820;48.738;9.092;2022-10-16T03:51:38;96207.19;;;16.07;100.00
23303;BME280;11820;48.738;9.092;2022-10-16T03:54:04;96210.63;;;16.08;100.00
23303;BME280;11820;48.738;9.092;2022-10-16T03:56:29;96208.00;;;16.08;100.00
23303;BME280;11820;48.738;9.092;2022-10-16T03:58:54;96207.19;;;16.07;100.00
23303;BME280;11820;48.738;9.092;2022-10-16T04:01:20;96201.19;;;16.07;100.00
23303;BME280;11820;48.738;9.092;2022-10-16T04:03:45;96210.25;;;16.16;100.00
23303;BME280;11820;48.738;9.092;2022-10-16T04:06:10;96202.44;;;16.04;100.00
23303;BME280;11820;48.738;9.092;2022-10-16T04:08:36;96202.78;;;16.08;100.00
23303;BME280;11820;48.738;9.092;2022-10-16T04:11:02;96202.69;;;16.03;100.00
23303;BME280;11820;48.738;9.092;2022-10-16T04:13:28;96211.63;;;16.07;100.00
23303;BME280;11820;48.738;9.092;2022-10-16T04:15:54;96206.41;;;16.07;100.00
23303;BME280;11820;48.738;9.092;2022-10-16T04:18:19;96210.25;;;16.04;100.00
23303;BME280;11820;48.738;9.092;2022-10-16T04:20:44;96201.41;;;16.05;100.00
23303;BME280;11820;48.738;9.092;2022-10-16T04:23:10;96209.59;;;16.09;100.00
23303;BME280;11820;48.738;9.092;2022-10-16T04:25:35;96209.25;;;16.05;100.00
23303;BME280;11820;48.738;9.092;2022-10-16T04:28:00;96202.78;;;16.08;100.00
23303;BME280;11820;48.738;9.092;2022-10-16T04:30:26;96204.38;;;16.09;100.00
23303;BME280;11820;48.738;9.092;2022-10-16T04:32:52;96202.56;;;16.09;100.00
23303;BME280;11820;48.738;9.092;2022-10-16T04:35:18;96204.38;;;16.09;100.00
23303;BME280;11820;48.738;9.092;2022-10-16T04:37:43;96205.97;;;16.10;100.00
23303;BME280;11820;48.738;9.092;2022-10-16T04:40:09;96202.88;;;16.13;100.00
23303;BME280;11820;48.738;9.092;2022-10-16T04:42:34;96215.16;;;16.12;100.00
23303;BME280;11820;48.738;9.092;2022-10-16T04:45:00;96224.78;;;16.12;100.00
23303;BME280;11820;48.738;9.092;2022-10-16T04:47:25;96227.75;;;16.15;100.00
23303;BME280;11820;48.738;9.092;2022-10-16T04:49:50;96225.69;;;16.17;100.00
23303;BME280;11820;48.738;9.092;2022-10-16T04:52:15;96224.31;;;16.15;100.00
23303;BME280;11820;48.738;9.092;2022-10-16T04:54:41;96224.31;;;16.15;100.00
23303;BME280;11820;48.738;9.092;2022-10-16T04:57:06;96229.78;;;16.13;100.00
23303;BME280;11820;48.738;9.092;2022-10-16T04:59:32;96240.44;;;16.12;100.00
23303;BME280;11820;48.738;9.092;2022-10-16T05:01:57;96238.63;;;16.12;100.00
23303;BME280;11820;48.738;9.092;2022-10-16T05:04:22;96250.09;;;16.11;100.00
23303;BME280;11820;48.738;9.092;2022-10-16T05:06:48;96239.31;;;16.08;100.00
23303;BME280;11820;48.738;9.092;2022-10-16T05:09:13;96253.38;;;16.07;100.00
23303;BME280;11820;48.738;9.092;2022-10-16T05:11:38;96247.34;;;16.06;100.00
23303;BME280;11820;48.738;9.092;2022-10-16T05:14:04;96251.78;;;16.06;100.00
23303;BME280;11820;48.738;9.092;2022-10-16T05:16:29;96246.00;;;16.04;100.00
23303;BME280;11820;48.738;9.092;2022-10-16T05:18:55;96240.78;;;16.04;100.00
23303;BME280;11820;48.738;9.092;2022-10-16T05:21:21;96241.81;;;16.03;100.00
23303;BME280;11820;48.738;9.092;2022-10-16T05:23:47;96240.69;;;15.99;100.00
23303;BME280;11820;48.738;9.092;2022-10-16T05:26:12;96237.06;;;16.00;100.00
23303;BME280;11820;48.738;9.092;2022-10-16T05:28:37;96239.53;;;15.95;100.00
23303;BME280;11820;48.738;9.092;2022-10-16T05:31:07;96244.19;;;15.93;100.00
23303;BME280;11820;48.738;9.092;2022-10-16T05:33:32;96241.56;;;15.93;100.00
23303;BME280;11820;48.738;9.092;2022-10-16T05:36:08;96242.28;;;15.88;100.00
23303;BME280;11820;48.738;9.092;2022-10-16T05:38:35;96246.69;;;15.88;100.00
23303;BME280;11820;48.738;9.092;2022-10-16T05:41:01;96250.31;;;15.87;100.00
23303;BME280;11820;48.738;9.092;2022-10-16T05:43:27;96250.88;;;15.89;100.00
23303;BME280;11820;48.738;9.092;2022-10-16T05:46:04;96251.69;;;15.89;100.00
23303;BME280;11820;48.738;9.092;2022-10-16T05:48:30;96242.59;;;15.92;100.00
23303;BME280;11820;48.738;9.092;2022-10-16T05:51:00;96247.59;;;15.93;100.00
23303;BME280;11820;48.738;9.092;2022-10-16T05:53:31;96258.81;;;15.94;100.00
23303;BME280;11820;48.738;9.092;2022-10-16T05:55:57;96258.38;;;15.97;100.00
23303;BME280;11820;48.738;9.092;2022-10-16T05:58:24;96258.38;;;15.97;100.00
23303;BME280;11820;48.738;9.092;2022-10-16T06:01:00;96264.16;;;15.99;100.00
23303;BME280;11820;48.738;9.092;2022-10-16T06:03:25;96271.28;;;15.92;100.00
23303;BME280;11820;48.738;9.092;2022-10-16T06:05:51;96264.63;;;15.96;100.00
23303;BME280;11820;48.738;9.092;2022-10-16T06:08:18;96271.53;;;16.02;100.00
23303;BME280;11820;48.738;9.092;2022-10-16T06:10:43;96272.66;;;16.06;100.00
23303;BME280;11820;48.738;9.092;2022-10-16T06:13:10;96279.94;;;16.04;100.00
23303;BME280;11820;48.738;9.092;2022-10-16T06:15:35;96281.50;;;16.05;100.00
23303;BME280;11820;48.738;9.092;2022-10-16T06:18:00;96279.94;;;16.04;100.00
23303;BME280;11820;48.738;9.092;2022-10-16T06:20:26;96283.44;;;16.09;100.00
23303;BME280;11820;48.738;9.092;2022-10-16T06:22:51;96286.38;;;16.13;100.00
23303;BME280;11820;48.738;9.092;2022-10-16T06:25:16;96293.19;;;16.14;100.00
23303;BME280;11820;48.738;9.092;2022-10-16T06:27:42;96287.75;;;16.15;100.00
23303;BME280;11820;48.738;9.092;2022-10-16T06:30:07;96292.16;;;16.15;100.00
23303;BME280;11820;48.738;9.092;2022-10-16T06:32:33;96282.06;;;16.18;100.00
23303;BME280;11820;48.738;9.092;2022-10-16T06:34:58;96283.41;;;16.21;100.00
23303;BME280;11820;48.738;9.092;2022-10-16T06:37:24;96284.44;;;16.20;100.00
23303;BME280;11820;48.738;9.092;2022-10-16T06:39:50;96296.03;;;16.24;100.00
23303;BME280;11820;48.738;9.092;2022-10-16T06:42:17;96296.03;;;16.24;100.00
23303;BME280;11820;48.738;9.092;2022-10-16T06:44:43;96298.19;;;16.27;100.00
23303;BME280;11820;48.738;9.092;2022-10-16T06:47:08;96301.47;;;16.33;100.00
23303;BME280;11820;48.738;9.092;2022-10-16T06:49:33;96310.31;;;16.32;100.00
23303;BME280;11820;48.738;9.092;2022-10-16T06:51:58;96316.13;;;16.34;100.00
23303;BME280;11820;48.738;9.092;2022-10-16T06:54:24;96312.50;;;16.35;100.00
23303;BME280;11820;48.738;9.092;2022-10-16T06:56:50;96322.34;;;16.33;100.00
23303;BME280;11820;48.738;9.092;2022-10-16T06:59:16;96315.53;;;16.32;100.00
23303;BME280;11820;48.738;9.092;2022-10-16T07:01:41;96319.31;;;16.36;100.00
23303;BME280;11820;48.738;9.092;2022-10-16T07:04:06;96320.44;;;16.40;100.00
23303;BME280;11820;48.738;9.092;2022-10-16T07:06:33;96328.63;;;16.44;100.00
23303;BME280;11820;48.738;9.092;2022-10-16T07:09:01;96337.38;;;16.49;100.00
23303;BME280;11820;48.738;9.092;2022-10-16T07:11:27;96346.56;;;16.52;100.00
23303;BME280;11820;48.738;9.092;2022-10-16T07:13:52;96346.44;;;16.47;100.00
23303;BME280;11820;48.738;9.092;2022-10-16T07:16:20;96350.63;;;16.48;100.00
23303;BME280;11820;48.738;9.092;2022-10-16T07:18:46;96353.03;;;16.49;100.00
23303;BME280;11820;48.738;9.092;2022-10-16T07:23:37;96361.91;;;16.48;100.00
23303;BME280;11820;48.738;9.092;2022-10-16T07:26:04;96361.91;;;16.48;100.00
23303;BME280;11820;48.738;9.092;2022-10-16T07:28:30;96376.53;;;16.49;100.00
23303;BME280;11820;48.738;9.092;2022-10-16T07:30:55;96377.56;;;16.48;100.00
23303;BME280;11820;48.738;9.092;2022-10-16T07:33:24;96371.88;;;16.51;100.00
23303;BME280;11820;48.738;9.092;2022-10-16T07:35:54;96374.25;;;16.53;100.00
23303;BME280;11820;48.738;9.092;2022-10-16T07:38:20;96369.38;;;16.56;100.00
23303;BME280;11820;48.738;9.092;2022-10-16T07:40:46;96366.31;;;16.59;100.00
23303;BME280;11820;48.738;9.092;2022-10-16T07:43:12;96375.16;;;16.58;100.00
23303;BME280;11820;48.738;9.092;2022-10-16T07:45:47;96375.72;;;16.60;100.00
23303;BME280;11820;48.738;9.092;2022-10-16T07:48:12;96375.38;;;16.57;100.00
23303;BME280;11820;48.738;9.092;2022-10-16T07:50:38;96385.03;;;16.56;100.00
23303;BME280;11820;48.738;9.092;2022-10-16T07:53:03;96389.25;;;16.57;100.00
23303;BME280;11820;48.738;9.092;2022-10-16T07:55:29;96393.22;;;16.60;100.00
23303;BME280;11820;48.738;9.092;2022-10-16T07:57:54;96390.38;;;16.61;100.00
23303;BME280;11820;48.738;9.092;2022-10-16T08:00:20;96389.34;;;16.62;100.00
23303;BME280;11820;48.738;9.092;2022-10-16T08:02:45;96401.50;;;16.68;100.00
23303;BME280;11820;48.738;9.092;2022-10-16T08:05:11;96398.41;;;16.71;100.00
23303;BME280;11820;48.738;9.092;2022-10-16T08:07:36;96398.09;;;16.79;100.00
23303;BME280;11820;48.738;9.092;2022-10-16T08:10:02;96405.00;;;16.85;100.00
23303;BME280;11820;48.738;9.092;2022-10-16T08:12:27;96393.97;;;16.95;100.00
23303;BME280;11820;48.738;9.092;2022-10-16T08:14:53;96397.81;;;17.04;100.00
23303;BME280;11820;48.738;9.092;2022-10-16T08:17:18;96397.50;;;17.12;100.00
23303;BME280;11820;48.738;9.092;2022-10-16T08:19:47;96401.41;;;17.26;100.00
23303;BME280;11820;48.738;9.092;2022-10-16T08:22:13;96406.53;;;17.32;100.00
23303;BME280;11820;48.738;9.092;2022-10-16T08:24:39;96411.75;;;17.32;100.00
23303;BME280;11820;48.738;9.092;2022-10-16T08:27:04;96416.56;;;17.35;100.00
23303;BME280;11820;48.738;9.092;2022-10-16T08:29:30;96414.38;;;17.44;100.00
23303;BME280;11820;48.738;9.092;2022-10-16T08:31:55;96420.81;;;17.53;100.00
23303;BME280;11820;48.738;9.092;2022-10-16T08:34:20;96428.44;;;17.54;100.00
23303;BME280;11820;48.738;9.092;2022-10-16T08:36:46;96432.31;;;17.52;100.00
23303;BME280;11820;48.738;9.092;2022-10-16T08:39:11;96429.94;;;17.50;100.00
23303;BME280;11820;48.738;9.092;2022-10-16T08:47:20;96436.78;;;17.40;100.00
23303;BME280;11820;48.738;9.092;2022-10-16T08:50:00;96437.00;;;17.38;100.00
23303;BME280;11820;48.738;9.092;2022-10-16T08:52:33;96440.53;;;17.44;100.00
23303;BME280;11820;48.738;9.092;2022-10-16T08:55:01;96444.94;;;17.43;100.00
23303;BME280;11820;48.738;9.092;2022-10-16T08:57:26;96448.81;;;17.52;100.00
23303;BME280;11820;48.738;9.092;2022-10-16T08:59:52;96446.94;;;17.64;100.00
23303;BME280;11820;48.738;9.092;2022-10-16T09:07:32;96449.75;;;18.02;100.00
23303;BME280;11820;48.738;9.092;2022-10-16T09:10:52;96425.50;;;18.23;100.00
23303;BME280;11820;48.738;9.092;2022-10-16T09:21:22;96443.59;;;19.07;100.00
23303;BME280;11820;48.738;9.092;2022-10-16T09:23:48;96456.00;;;18.95;100.00
23303;BME280;11820;48.738;9.092;2022-10-16T09:26:15;96461.66;;;18.87;100.00
23303;BME280;11820;48.738;9.092;2022-10-16T09:28:41;96457.97;;;19.04;100.00
23303;BME280;11820;48.738;9.092;2022-10-16T09:31:33;96454.63;;;19.47;100.00
23303;BME280;11820;48.738;9.092;2022-10-16T09:34:03;96461.91;;;19.40;100.00
23303;BME280;11820;48.738;9.092;2022-10-16T09:36:42;96458.38;;;19.13;100.00
23303;BME280;11820;48.738;9.092;2022-10-16T09:39:09;96454.81;;;19.02;100.00
23303;BME280;11820;48.738;9.092;2022-10-16T09:41:37;96461.00;;;19.13;100.00
23303;BME280;11820;48.738;9.092;2022-10-16T09:44:13;96468.41;;;19.37;100.00
23303;BME280;11820;48.738;9.092;2022-10-16T09:46:41;96468.94;;;19.56;100.00
23303;BME280;11820;48.738;9.092;2022-10-16T09:49:24;96468.44;;;20.01;100.00
23303;BME280;11820;48.738;9.092;2022-10-16T09:51:51;96467.03;;;19.94;100.00
23303;BME280;11820;48.738;9.092;2022-10-16T09:54:27;96469.38;;;19.95;100.00
23303;BME280;11820;48.738;9.092;2022-10-16T09:56:52;96475.94;;;20.14;100.00
23303;BME280;11820;48.738;9.092;2022-10-16T09:59:28;96465.47;;;20.46;100.00
23303;BME280;11820;48.738;9.092;2022-10-16T10:01:56;96475.00;;;20.83;100.00
23303;BME280;11820;48.738;9.092;2022-10-16T10:04:25;96482.16;;;20.61;100.00
23303;BME280;11820;48.738;9.092;2022-10-16T10:06:54;96487.63;;;20.28;100.00
23303;BME280;11820;48.738;9.092;2022-10-16T10:09:47;96490.09;;;20.40;100.00
23303;BME280;11820;48.738;9.092;2022-10-16T10:12:39;96488.13;;;20.52;100.00
23303;BME280;11820;48.738;9.092;2022-10-16T10:15:07;96490.97;;;22.21;100.00
23303;BME280;11820;48.738;9.092;2022-10-16T10:17:49;96493.72;;;22.86;100.00
23303;BME280;11820;48.738;9.092;2022-10-16T10:20:34;96493.03;;;22.04;100.00
23303;BME280;11820;48.738;9.092;2022-10-16T10:23:01;96500.66;;;21.44;100.00
23303;BME280;11820;48.738;9.092;2022-10-16T10:25:42;96494.72;;;21.22;100.00
23303;BME280;11820;48.738;9.092;2022-10-16T10:31:29;96489.31;;;21.02;100.00
23303;BME280;11820;48.738;9.092;2022-10-16T10:34:01;96486.19;;;21.05;100.00
23303;BME280;11820;48.738;9.092;2022-10-16T10:36:36;96495.78;;;21.21;100.00
23303;BME280;11820;48.738;9.092;2022-10-16T10:39:20;96492.63;;;21.65;100.00
23303;BME280;11820;48.738;9.092;2022-10-16T10:41:58;96501.50;;;22.11;100.00
23303;BME280;11820;48.738;9.092;2022-10-16T10:44:56;96492.66;;;23.02;100.00
23303;BME280;11820;48.738;9.092;2022-10-16T10:50:24;96496.28;;;25.81;100.00
23303;BME280;11820;48.738;9.092;2022-10-16T10:53:06;96498.41;;;26.26;95.71
23303;BME280;11820;48.738;9.092;2022-10-16T10:56:28;96492.09;;;26.22;92.78
23303;BME280;11820;48.738;9.092;2022-10-16T11:01:14;96480.16;;;29.73;68.50
23303;BME280;11820;48.738;9.092;2022-10-16T11:04:05;96481.00;;;31.68;52.29
23303;BME280;11820;48.738;9.092;2022-10-16T11:06:44;96484.75;;;29.81;51.80
23303;BME280;11820;48.738;9.092;2022-10-16T11:09:35;96485.03;;;28.52;58.56
23303;BME280;11820;48.738;9.092;2022-10-16T11:12:21;96485.91;;;27.45;61.20
23303;BME280;11820;48.738;9.092;2022-10-16T11:15:00;96490.78;;;26.01;69.86
23303;BME280;11820;48.738;9.092;2022-10-16T11:17:42;96501.25;;;25.07;76.75
23303;BME280;11820;48.738;9.092;2022-10-16T11:20:29;96496.22;;;24.77;81.60
23303;BME280;11820;48.738;9.092;2022-10-16T11:23:02;96500.19;;;24.75;85.01
23303;BME280;11820;48.738;9.092;2022-10-16T11:25:32;96496.28;;;25.81;80.25
23303;BME280;11820;48.738;9.092;2022-10-16T11:28:34;96488.84;;;26.98;75.06
23303;BME280;11820;48.738;9.092;2022-10-16T11:33:45;96478.38;;;32.46;49.30
23303;BME280;11820;48.738;9.092;2022-10-16T11:36:33;96470.66;;;33.75;43.94
23303;BME280;11820;48.738;9.092;2022-10-16T11:39:20;96472.81;;;30.93;49.34
23303;BME280;11820;48.738;9.092;2022-10-16T11:44:59;96459.69;;;38.14;36.54
23303;BME280;11820;48.738;9.092;2022-10-16T11:47:34;96472.59;;;38.24;35.49
23303;BME280;11820;48.738;9.092;2022-10-16T11:50:13;96461.00;;;38.79;35.73
23303;BME280;11820;48.738;9.092;2022-10-16T11:53:07;96454.94;;;36.96;35.49
23303;BME280;11820;48.738;9.092;2022-10-16T11:55:39;96452.69;;;38.65;34.74
23303;BME280;11820;48.738;9.092;2022-10-16T11:58:26;96449.25;;;39.34;34.68
23303;BME280;11820;48.738;9.092;2022-10-16T12:01:00;96447.59;;;37.82;33.95
23303;BME280;11820;48.738;9.092;2022-10-16T12:03:56;96443.75;;;35.90;35.62
23303;BME280;11820;48.738;9.092;2022-10-16T12:06:35;96439.59;;;41.22;31.27
23303;BME280;11820;48.738;9.092;2022-10-16T12:09:03;96431.41;;;41.09;32.21
23303;BME280;11820;48.738;9.092;2022-10-16T12:16:33;96437.38;;;37.47;34.96
23303;BME280;11820;48.738;9.092;2022-10-16T12:19:29;96449.28;;;32.16;41.52
23303;BME280;11820;48.738;9.092;2022-10-16T12:21:58;96458.22;;;30.31;44.45
23303;BME280;11820;48.738;9.092;2022-10-16T12:24:39;96464.00;;;29.08;49.33
23303;BME280;11820;48.738;9.092;2022-10-16T12:29:46;96469.22;;;28.34;54.67
23303;BME280;11820;48.738;9.092;2022-10-16T12:32:29;96463.47;;;28.05;56.30
23303;BME280;11820;48.738;9.092;2022-10-16T12:34:56;96484.16;;;26.90;61.22
23303;BME280;11820;48.738;9.092;2022-10-16T12:37:34;96475.97;;;27.05;65.49
23303;BME280;11820;48.738;9.092;2022-10-16T12:40:13;96464.59;;;28.40;62.98
23303;BME280;11820;48.738;9.092;2022-10-16T12:42:39;96470.94;;;27.49;67.92
23303;BME280;11820;48.738;9.092;2022-10-16T12:45:28;96469.66;;;26.51;69.25
23303;BME280;11820;48.738;9.092;2022-10-16T12:47:55;96466.50;;;25.89;75.24
23303;BME280;11820;48.738;9.092;2022-10-16T12:50:34;96473.72;;;25.36;80.87
23303;BME280;11820;48.738;9.092;2022-10-16T12:53:02;96478.72;;;24.81;85.48
23303;BME280;11820;48.738;9.092;2022-10-16T12:55:35;96478.13;;;24.56;87.72
23303;BME280;11820;48.738;9.092;2022-10-16T12:58:17;96472.91;;;24.41;89.72
23303;BME280;11820;48.738;9.092;2022-10-16T13:00:58;96480.34;;;23.90;93.02
23303;BME280;11820;48.738;9.092;2022-10-16T13:06:15;96496.19;;;23.80;93.48
23303;BME280;11820;48.738;9.092;2022-10-16T13:09:10;96484.59;;;23.81;92.89
23303;BME280;11820;48.738;9.092;2022-10-16T13:28:11;96499.50;;;23.32;97.33
23303;BME280;11820;48.738;9.092;2022-10-16T13:30:51;96497.91;;;23.26;98.43
23303;BME280;11820;48.738;9.092;2022-10-16T13:33:21;96495.03;;;23.28;98.44
23303;BME280;11820;48.738;9.092;2022-10-16T13:35:52;96491.03;;;23.40;100.00
23303;BME280;11820;48.738;9.092;2022-10-16T13:38:20;96499.75;;;23.36;100.00
23303;BME280;11820;48.738;9.092;2022-10-16T13:41:03;96496.81;;;23.52;99.86
23303;BME280;11820;48.738;9.092;2022-10-16T13:43:39;96496.56;;;23.54;100.00
23303;BME280;11820;48.738;9.092;2022-10-16T13:46:19;96496.78;;;23.57;100.00
23303;BME280;11820;48.738;9.092;2022-10-16T13:48:59;96498.63;;;23.62;100.00
23303;BME280;11820;48.738;9.092;2022-10-16T13:51:25;96488.88;;;23.52;100.00
23303;BME280;11820;48.738;9.092;2022-10-16T13:53:50;96485.69;;;23.60;100.00
23303;BME280;11820;48.738;9.092;2022-10-16T13:56:19;96489.91;;;23.66;100.00
23303;BME280;11820;48.738;9.092;2022-10-16T13:58:45;96492.34;;;23.53;100.00
23303;BME280;11820;48.738;9.092;2022-10-16T14:01:20;96494.47;;;23.36;100.00
23303;BME280;11820;48.738;9.092;2022-10-16T14:03:49;96497.44;;;23.15;100.00
23303;BME280;11820;48.738;9.092;2022-10-16T14:06:17;96493.69;;;23.01;100.00
23303;BME280;11820;48.738;9.092;2022-10-16T14:08:46;96493.19;;;22.89;100.00
23303;BME280;11820;48.738;9.092;2022-10-16T14:11:20;96497.94;;;22.72;100.00
23303;BME280;11820;48.738;9.092;2022-10-16T14:13:47;96499.25;;;22.59;100.00
23303;BME280;11820;48.738;9.092;2022-10-16T14:16:20;96495.81;;;22.54;100.00
23303;BME280;11820;48.738;9.092;2022-10-16T14:18:55;96503.72;;;22.54;100.00